»·PEaware :: N969CR L52-L88

N969CR :: L52-L88

FLIGHT INFORMATION

Flight Status: Arrived
Operator: Privately registered:
United States
More flights under this callsign
Pilot: Chad R. (22987)
Aircraft: CESSNA 172 SKYHAWK
(C172)
More flights by this aircraft type
Origin: L52 Oceano Co
United States
Destination: L88 New Cuyama
United States
More flights between these airports :: More routes between these airports
Route:
File this flight plan on PilotEdge
Remarks: CAT-1
Altitude:
(Current/Filed)
0ft
Speed:
(Current/Filed)
0kts
Departed: 10-Jan-19 10:19 PM
Arrived: 10-Jan-19 10:52 PM
Distance/Time
Traveled:
47nm/0:33
Distance/Time
To Go:
Arrived

Flight Plot

Page will automatically refresh every two minutes.


Map Options




Map Legend


Flown Route
Filed Route
Departure Airport
Arrival Airport
Navaid (VOR, NDB)
Fix

Horizontal Profiles

Position Reports

Time Latitude Longitude Heading Altitude Ground
Speed
10-Jan-19 21:44 35.103091 -120.624062 213 18ft 0kts
10-Jan-19 21:45 35.103091 -120.624062 213 18ft 0kts
10-Jan-19 21:46 35.103091 -120.624062 213 18ft 0kts
10-Jan-19 21:47 35.103091 -120.624062 213 18ft 0kts
10-Jan-19 21:48 35.103091 -120.624062 213 18ft 0kts
10-Jan-19 21:49 35.103091 -120.624062 213 18ft 0kts
10-Jan-19 21:50 35.103091 -120.624062 213 18ft 0kts
10-Jan-19 21:51 35.103091 -120.624062 213 18ft 0kts
10-Jan-19 21:52 35.103091 -120.624062 213 18ft 0kts
10-Jan-19 21:53 35.103091 -120.624062 213 18ft 0kts
10-Jan-19 21:54 35.103091 -120.624062 213 18ft 0kts
10-Jan-19 21:55 35.103091 -120.624062 213 18ft 0kts
10-Jan-19 21:56 35.103091 -120.624062 213 18ft 0kts
10-Jan-19 21:57 35.103091 -120.624062 213 18ft 0kts
10-Jan-19 21:58 35.103091 -120.624062 213 18ft 0kts
10-Jan-19 21:59 35.103091 -120.624062 213 18ft 0kts
10-Jan-19 22:00 35.103091 -120.624062 213 18ft 0kts
10-Jan-19 22:01 35.103091 -120.624062 213 18ft 0kts
10-Jan-19 22:02 35.103091 -120.624062 213 18ft 0kts
10-Jan-19 22:03 35.103091 -120.624062 213 18ft 0kts
10-Jan-19 22:04 35.103091 -120.624062 213 18ft 0kts
10-Jan-19 22:05 35.103091 -120.624062 213 18ft 0kts
10-Jan-19 22:06 35.103091 -120.624062 213 18ft 0kts
10-Jan-19 22:07 35.103091 -120.624062 213 18ft 0kts
10-Jan-19 22:08 35.103073 -120.624099 271 18ft 1kts
10-Jan-19 22:09 35.103432 -120.624870 306 18ft 1kts
10-Jan-19 22:10 35.103516 -120.625098 260 18ft 0kts
10-Jan-19 22:11 35.103516 -120.625098 260 18ft 0kts
10-Jan-19 22:12 35.103516 -120.625098 260 18ft 0kts
10-Jan-19 22:13 35.103516 -120.625098 260 18ft 0kts
10-Jan-19 22:14 35.103516 -120.625098 260 18ft 0kts
10-Jan-19 22:15 35.103516 -120.625098 260 18ft 0kts
10-Jan-19 22:16 35.103488 -120.625189 240 18ft 1kts
10-Jan-19 22:17 35.102568 -120.624169 124 18ft 33kts
10-Jan-19 22:18 35.092988 -120.603507 105 723ft 75kts
10-Jan-19 22:19 35.089442 -120.578464 101 1576ft 75kts
10-Jan-19 22:20 35.083219 -120.552504 104 2529ft 81kts
10-Jan-19 22:21 35.075846 -120.526185 106 3472ft 82kts
10-Jan-19 22:22 35.072615 -120.498292 92 4352ft 83kts
10-Jan-19 22:23 35.069264 -120.470109 98 5163ft 85kts
10-Jan-19 22:24 35.063346 -120.442849 116 5344ft 82kts
10-Jan-19 22:25 35.061382 -120.415106 90 5395ft 82kts
10-Jan-19 22:26 35.063217 -120.385459 87 5468ft 96kts
10-Jan-19 22:27 35.062517 -120.350009 98 5453ft 109kts
10-Jan-19 22:28 35.068172 -120.314634 67 5474ft 111kts
10-Jan-19 22:29 35.076628 -120.279073 86 5493ft 111kts
10-Jan-19 22:30 35.077284 -120.240493 88 5397ft 114kts
10-Jan-19 22:31 35.081491 -120.202173 81 5344ft 112kts
10-Jan-19 22:32 35.082467 -120.164658 91 5363ft 109kts
10-Jan-19 22:33 35.084392 -120.126552 84 5366ft 115kts
10-Jan-19 22:34 35.085542 -120.088909 92 5387ft 109kts
10-Jan-19 22:35 35.084262 -120.051600 104 5347ft 107kts
10-Jan-19 22:36 35.073380 -120.015898 112 5033ft 112kts
10-Jan-19 22:37 35.060957 -119.982865 114 4895ft 103kts
10-Jan-19 22:38 35.047164 -119.951623 117 4715ft 104kts
10-Jan-19 22:39 35.032684 -119.921036 125 4540ft 104kts
10-Jan-19 22:40 35.015516 -119.891833 124 4384ft 107kts
10-Jan-19 22:41 34.999828 -119.861313 113 4408ft 104kts
10-Jan-19 22:42 34.986724 -119.830103 115 4469ft 103kts
10-Jan-19 22:43 34.978049 -119.795921 104 4465ft 110kts
10-Jan-19 22:44 34.971080 -119.759354 100 4327ft 109kts
10-Jan-19 22:45 34.964747 -119.722820 103 4125ft 109kts
10-Jan-19 22:46 34.956700 -119.689222 112 3755ft 103kts
10-Jan-19 22:47 34.946754 -119.657139 107 3267ft 95kts
10-Jan-19 22:48 34.933459 -119.637279 173 2883ft 73kts
10-Jan-19 22:49 34.927532 -119.653979 285 2647ft 63kts
10-Jan-19 22:50 34.934741 -119.672543 294 2427ft 56kts
10-Jan-19 22:51 34.940040 -119.685894 294 2207ft 22kts
10-Jan-19 22:52 34.941736 -119.689968 296 2207ft 12kts
10-Jan-19 22:54 34.942874 -119.691001 72 2207ft 4kts
10-Jan-19 22:55 34.942697 -119.690529 16 2207ft 0kts
10-Jan-19 22:56 34.942697 -119.690529 16 2207ft 0kts
10-Jan-19 22:57 34.942697 -119.690529 16 2207ft 0kts
10-Jan-19 22:58 34.942697 -119.690529 16 2207ft 0kts
10-Jan-19 22:59 34.942697 -119.690529 16 2207ft 0kts

Navigation Log

Ident Type
Flight plan parsing failed, navigation log unavailable